Terminal Aerodrome Forecast
Issued by NWS

Current Version | Previous Version | Text Only | Print | Product List | Glossary On
Versions: 1 2 3 4 5 6 7 8 9 10 11 12 13
000
FTUS45 KABQ 212300
TAFFMN
TAF
KFMN 212321Z 2200/2224 23009KT P6SM VCSH BKN080
     FM220200 14009KT P6SM VCTS BKN060CB
     FM220500 11008KT P6SM VCSH BKN080
     FM221100 09007KT P6SM BKN100
      TEMPO 2220/2224 -TSRA OVC050CB=

USA.gov is the U.S. government's official web portal to all federal, state and local government web resources and services.